createdAt,value
2017-07-04T00:00:57.525Z,957.33
2017-07-04T00:01:57.503Z,957.28
2017-07-04T00:02:57.499Z,957.34
2017-07-04T00:03:57.496Z,957.36
2017-07-04T00:04:57.629Z,957.3
2017-07-04T00:05:57.490Z,957.39
2017-07-04T00:06:57.485Z,957.32
2017-07-04T00:07:57.483Z,957.38
2017-07-04T00:08:57.597Z,957.4
2017-07-04T00:09:57.596Z,957.36
2017-07-04T00:10:57.473Z,957.39
2017-07-04T00:11:57.468Z,957.32
2017-07-04T00:12:57.465Z,957.36
2017-07-04T00:13:57.462Z,957.33
2017-07-04T00:14:57.459Z,957.32
2017-07-04T00:15:57.476Z,957.28
2017-07-04T00:16:57.615Z,957.28
2017-07-04T00:17:57.447Z,957.3
2017-07-04T00:18:57.446Z,957.32
2017-07-04T00:19:57.441Z,957.33
2017-07-04T00:20:57.440Z,957.33
2017-07-04T00:21:57.447Z,957.33
2017-07-04T00:22:57.430Z,957.28
2017-07-04T00:23:57.459Z,957.35
2017-07-04T00:24:57.536Z,957.3
2017-07-04T00:25:57.537Z,957.36
2017-07-04T00:26:57.438Z,957.32
2017-07-04T00:27:57.411Z,957.31
2017-07-04T00:28:57.408Z,957.29
2017-07-04T00:29:57.405Z,957.3
2017-07-04T00:30:57.401Z,957.28
2017-07-04T00:31:57.398Z,957.28
2017-07-04T00:32:57.397Z,957.31
2017-07-04T00:33:57.390Z,957.26
2017-07-04T00:34:57.387Z,957.26
2017-07-04T00:35:57.384Z,957.25
2017-07-04T00:36:57.382Z,957.19
2017-07-04T00:37:57.377Z,957.3
2017-07-04T00:38:57.373Z,957.27
2017-07-04T00:39:57.669Z,957.23
2017-07-04T00:40:57.367Z,957.21
2017-07-04T00:41:57.361Z,957.26
2017-07-04T00:42:57.359Z,957.29
2017-07-04T00:43:57.356Z,957.25
2017-07-04T00:44:57.352Z,957.26
2017-07-04T00:45:57.347Z,957.27
2017-07-04T00:46:57.348Z,957.26
2017-07-04T00:47:57.351Z,957.22
2017-07-04T00:48:57.339Z,957.22
2017-07-04T00:49:57.333Z,957.23
2017-07-04T00:50:57.329Z,957.29
2017-07-04T00:51:57.325Z,957.23
2017-07-04T00:52:57.321Z,957.3
2017-07-04T00:53:57.319Z,957.3
2017-07-04T00:54:57.316Z,957.25
2017-07-04T00:55:57.312Z,957.24
2017-07-04T00:56:57.306Z,957.21
2017-07-04T00:57:57.310Z,957.24
2017-07-04T00:58:57.306Z,957.23
2017-07-04T00:59:57.300Z,957.25
2017-07-04T01:00:57.293Z,957.22
2017-07-04T01:01:57.288Z,957.23
2017-07-04T01:02:57.285Z,957.19
2017-07-04T01:03:57.281Z,957.22
2017-07-04T01:04:57.279Z,957.23
2017-07-04T01:05:57.275Z,957.18
2017-07-04T01:06:57.271Z,957.22
2017-07-04T01:07:57.267Z,957.22
2017-07-04T01:08:57.278Z,957.21
2017-07-04T01:09:57.260Z,957.21
2017-07-04T01:10:57.256Z,957.21
2017-07-04T01:11:57.252Z,957.2
2017-07-04T01:12:57.269Z,957.23
2017-07-04T01:13:57.245Z,957.21
2017-07-04T01:14:57.240Z,957.23
2017-07-04T01:15:57.236Z,957.23
2017-07-04T01:16:57.233Z,957.19
2017-07-04T01:17:57.234Z,957.22
2017-07-04T01:18:57.237Z,957.22
2017-07-04T01:19:57.222Z,957.25
2017-07-04T01:20:57.219Z,957.25
2017-07-04T01:21:57.215Z,957.24
2017-07-04T01:22:57.211Z,957.19
2017-07-04T01:23:57.207Z,957.23
2017-07-04T01:24:57.204Z,957.2
2017-07-04T01:25:57.199Z,957.17
2017-07-04T01:26:57.195Z,957.2
2017-07-04T01:27:57.193Z,957.22
2017-07-04T01:28:57.205Z,957.26
2017-07-04T01:29:57.183Z,957.32
2017-07-04T01:30:57.181Z,957.28
2017-07-04T01:31:57.177Z,957.33
2017-07-04T01:32:57.173Z,957.26
2017-07-04T01:33:57.170Z,957.23
2017-07-04T01:34:57.171Z,957.27
2017-07-04T01:35:57.161Z,957.3
2017-07-04T01:36:57.158Z,957.3
2017-07-04T01:37:57.154Z,957.31
2017-07-04T01:38:57.167Z,957.3
2017-07-04T01:39:57.168Z,957.32
2017-07-04T01:40:57.142Z,957.33
2017-07-04T01:41:57.139Z,957.36
2017-07-04T01:42:57.135Z,957.3
2017-07-04T01:43:57.132Z,957.3
2017-07-04T01:44:57.127Z,957.29
2017-07-04T01:45:57.124Z,957.28
2017-07-04T01:46:57.138Z,957.34
2017-07-04T01:47:57.117Z,957.35
2017-07-04T01:48:57.111Z,957.35
2017-07-04T01:49:57.121Z,957.39
2017-07-04T01:50:57.106Z,957.33
2017-07-04T01:51:57.101Z,957.35
2017-07-04T01:52:57.096Z,957.38
2017-07-04T01:53:57.092Z,957.39
2017-07-04T01:54:57.091Z,957.39
2017-07-04T01:55:57.087Z,957.4
2017-07-04T01:56:57.082Z,957.43
2017-07-04T01:57:57.078Z,957.4
2017-07-04T01:58:57.073Z,957.42
2017-07-04T01:59:57.071Z,957.35
2017-07-04T02:00:57.078Z,957.41
2017-07-04T02:01:57.064Z,957.43
2017-07-04T02:02:57.058Z,957.44
2017-07-04T02:03:57.055Z,957.47
2017-07-04T02:04:57.051Z,957.46
2017-07-04T02:05:57.048Z,957.46
2017-07-04T02:06:57.045Z,957.49
2017-07-04T02:07:57.041Z,957.49
2017-07-04T02:08:57.036Z,957.49
2017-07-04T02:09:57.033Z,957.49
2017-07-04T02:10:57.036Z,957.46
2017-07-04T02:11:57.024Z,957.5
2017-07-04T02:12:57.020Z,957.52
2017-07-04T02:13:57.016Z,957.49
2017-07-04T02:14:57.018Z,957.49
2017-07-04T02:15:57.008Z,957.48
2017-07-04T02:16:57.005Z,957.47
2017-07-04T02:17:57.000Z,957.46
2017-07-04T02:18:56.998Z,957.46
2017-07-04T02:19:56.994Z,957.45
2017-07-04T02:20:56.989Z,957.45
2017-07-04T02:21:57.010Z,957.48
2017-07-04T02:22:56.981Z,957.45
2017-07-04T02:23:56.978Z,957.47
2017-07-04T02:24:56.972Z,957.44
2017-07-04T02:25:56.968Z,957.44
2017-07-04T02:26:56.966Z,957.41
2017-07-04T02:27:56.960Z,957.4
2017-07-04T02:28:56.957Z,957.45
2017-07-04T02:29:56.952Z,957.45
2017-07-04T02:30:56.957Z,957.46
2017-07-04T02:31:56.944Z,957.43
2017-07-04T02:32:56.940Z,957.44
2017-07-04T02:33:56.936Z,957.42
2017-07-04T02:34:56.932Z,957.43
2017-07-04T02:35:56.927Z,957.43
2017-07-04T02:36:56.925Z,957.4
2017-07-04T02:37:56.920Z,957.39
2017-07-04T02:38:56.914Z,957.43
2017-07-04T02:39:56.911Z,957.4
2017-07-04T02:40:56.911Z,957.41
2017-07-04T02:41:56.904Z,957.47
2017-07-04T02:42:56.899Z,957.45
2017-07-04T02:43:56.896Z,957.47
2017-07-04T02:44:56.892Z,957.43
2017-07-04T02:45:56.888Z,957.45
2017-07-04T02:46:56.894Z,957.44
2017-07-04T02:47:56.877Z,957.42
2017-07-04T02:48:56.875Z,957.45
2017-07-04T02:49:56.870Z,957.49
2017-07-04T02:50:56.931Z,957.47
2017-07-04T02:51:56.884Z,957.46
2017-07-04T02:52:56.858Z,957.44
2017-07-04T02:53:56.853Z,957.43
2017-07-04T02:54:56.849Z,957.45
2017-07-04T02:55:56.845Z,957.42
2017-07-04T02:56:56.852Z,957.42
2017-07-04T02:57:56.835Z,957.4
2017-07-04T02:58:56.831Z,957.47
2017-07-04T02:59:56.828Z,957.44
2017-07-04T03:00:56.836Z,957.49
2017-07-04T03:01:56.819Z,957.45
2017-07-04T03:02:56.814Z,957.46
2017-07-04T03:03:56.809Z,957.47
2017-07-04T03:04:56.831Z,957.44
2017-07-04T03:05:56.800Z,957.43
2017-07-04T03:06:56.810Z,957.46
2017-07-04T03:07:56.792Z,957.44
2017-07-04T03:08:56.788Z,957.45
2017-07-04T03:09:56.785Z,957.47
2017-07-04T03:10:56.779Z,957.51
2017-07-04T03:11:56.774Z,957.47
2017-07-04T03:12:56.781Z,957.46
2017-07-04T03:13:56.783Z,957.48
2017-07-04T03:14:56.762Z,957.49
2017-07-04T03:15:56.757Z,957.49
2017-07-04T03:16:56.753Z,957.47
2017-07-04T03:17:56.749Z,957.46
2017-07-04T03:18:56.744Z,957.48
2017-07-04T03:19:56.738Z,957.52
2017-07-04T03:20:56.735Z,957.52
2017-07-04T03:21:56.767Z,957.51
2017-07-04T03:22:56.727Z,957.53
2017-07-04T03:23:56.722Z,957.51
2017-07-04T03:24:56.719Z,957.5
2017-07-04T03:25:56.713Z,957.54
2017-07-04T03:26:56.711Z,957.52
2017-07-04T03:27:56.705Z,957.55
2017-07-04T03:28:56.705Z,957.56
2017-07-04T03:29:56.711Z,957.54
2017-07-04T03:30:56.690Z,957.56
2017-07-04T03:31:56.687Z,957.54
2017-07-04T03:32:56.684Z,957.55
2017-07-04T03:33:56.678Z,957.59
2017-07-04T03:34:56.672Z,957.57
2017-07-04T03:35:56.670Z,957.57
2017-07-04T03:36:56.666Z,957.59
2017-07-04T03:37:56.659Z,957.62
2017-07-04T03:38:56.656Z,957.59
2017-07-04T03:39:56.652Z,957.6
2017-07-04T03:40:56.670Z,957.68
2017-07-04T03:41:56.644Z,957.62
2017-07-04T03:42:56.638Z,957.67
2017-07-04T03:43:56.633Z,957.67
2017-07-04T03:44:56.629Z,957.66
2017-07-04T03:45:56.626Z,957.68
2017-07-04T03:46:56.622Z,957.65
2017-07-04T03:47:56.625Z,957.64
2017-07-04T03:48:56.929Z,957.66
2017-07-04T03:49:56.608Z,957.66
2017-07-04T03:50:56.654Z,957.64
2017-07-04T03:51:56.598Z,957.68
2017-07-04T03:52:56.593Z,957.66
2017-07-04T03:53:56.889Z,957.64
2017-07-04T03:54:56.585Z,957.7
2017-07-04T03:55:56.580Z,957.69
2017-07-04T03:56:56.576Z,957.68
2017-07-04T03:57:56.576Z,957.65
2017-07-04T03:58:56.573Z,957.68
2017-07-04T03:59:56.562Z,957.64
2017-07-04T04:00:56.558Z,957.65
2017-07-04T04:01:56.554Z,957.64
2017-07-04T04:02:56.547Z,957.62
2017-07-04T04:03:56.545Z,957.66
2017-07-04T04:04:56.540Z,957.65
2017-07-04T04:05:56.537Z,957.66
2017-07-04T04:06:56.532Z,957.71
2017-07-04T04:07:56.526Z,957.71
2017-07-04T04:08:56.523Z,957.71
2017-07-04T04:09:56.519Z,957.73
2017-07-04T04:10:56.535Z,957.74
2017-07-04T04:11:56.511Z,957.75
2017-07-04T04:12:56.510Z,957.72
2017-07-04T04:13:56.501Z,957.74
2017-07-04T04:14:56.498Z,957.72
2017-07-04T04:15:56.493Z,957.77
2017-07-04T04:16:56.488Z,957.8
2017-07-04T04:17:56.484Z,957.75
2017-07-04T04:18:56.487Z,957.75
2017-07-04T04:19:56.477Z,957.77
2017-07-04T04:20:56.472Z,957.78
2017-07-04T04:21:56.468Z,957.78
2017-07-04T04:22:56.463Z,957.82
2017-07-04T04:23:56.460Z,957.84
2017-07-04T04:24:56.459Z,957.83
2017-07-04T04:25:56.449Z,957.87
2017-07-04T04:26:56.447Z,957.86
2017-07-04T04:27:56.443Z,957.85
2017-07-04T04:28:56.440Z,957.89
2017-07-04T04:29:56.455Z,957.87
2017-07-04T04:30:56.430Z,957.91
2017-07-04T04:31:56.426Z,957.89
2017-07-04T04:32:56.422Z,957.92
2017-07-04T04:33:56.417Z,957.91
2017-07-04T04:34:56.413Z,957.94
2017-07-04T04:35:56.409Z,957.94
2017-07-04T04:36:56.407Z,957.91
2017-07-04T04:37:56.400Z,957.95
2017-07-04T04:38:56.399Z,957.95
2017-07-04T04:39:56.413Z,957.93
2017-07-04T04:40:56.388Z,957.93
2017-07-04T04:41:56.385Z,957.94
2017-07-04T04:42:56.381Z,957.94
2017-07-04T04:43:56.376Z,957.96
2017-07-04T04:44:56.371Z,957.97
2017-07-04T04:45:56.368Z,957.92
2017-07-04T04:46:56.363Z,957.95
2017-07-04T04:47:56.359Z,957.93
2017-07-04T04:48:56.356Z,957.93
2017-07-04T04:49:56.354Z,957.94
2017-07-04T04:50:56.356Z,957.9
2017-07-04T04:51:56.345Z,957.89
2017-07-04T04:52:56.340Z,957.92
2017-07-04T04:53:56.336Z,957.93
2017-07-04T04:54:56.332Z,957.93
2017-07-04T04:55:56.328Z,957.94
2017-07-04T04:56:56.324Z,957.91
2017-07-04T04:57:56.321Z,957.96
2017-07-04T04:58:56.316Z,957.93
2017-07-04T04:59:56.312Z,957.99
2017-07-04T05:00:56.307Z,958
2017-07-04T05:01:56.304Z,958.03
2017-07-04T05:02:56.350Z,958
2017-07-04T05:03:56.298Z,958.03
2017-07-04T05:04:56.294Z,958.04
2017-07-04T05:05:56.289Z,958.02
2017-07-04T05:06:56.285Z,958.07
2017-07-04T05:07:56.280Z,958.03
2017-07-04T05:08:56.276Z,958.04
2017-07-04T05:09:56.279Z,958.06
2017-07-04T05:10:56.269Z,958.07
2017-07-04T05:11:56.266Z,958.09
2017-07-04T05:12:56.261Z,958.1
2017-07-04T05:13:56.258Z,958.12
2017-07-04T05:14:56.254Z,958.17
2017-07-04T05:15:56.250Z,958.15
2017-07-04T05:16:56.247Z,958.16
2017-07-04T05:17:56.243Z,958.19
2017-07-04T05:18:56.239Z,958.17
2017-07-04T05:19:56.235Z,958.21
2017-07-04T05:20:56.232Z,958.21
2017-07-04T05:21:56.249Z,958.17
2017-07-04T05:22:56.229Z,958.2
2017-07-04T05:23:56.221Z,958.22
2017-07-04T05:24:56.218Z,958.21
2017-07-04T05:25:56.212Z,958.2
2017-07-04T05:26:56.209Z,958.22
2017-07-04T05:27:56.208Z,958.27
2017-07-04T05:28:56.203Z,958.26
2017-07-04T05:29:56.197Z,958.26
2017-07-04T05:30:56.195Z,958.24
2017-07-04T05:31:56.209Z,958.25
2017-07-04T05:32:56.187Z,958.28
2017-07-04T05:33:56.188Z,958.29
2017-07-04T05:34:56.181Z,958.28
2017-07-04T05:35:56.175Z,958.29
2017-07-04T05:36:56.173Z,958.28
2017-07-04T05:37:56.187Z,958.29
2017-07-04T05:38:56.163Z,958.3
2017-07-04T05:39:56.160Z,958.3
2017-07-04T05:40:56.157Z,958.33
2017-07-04T05:41:56.166Z,958.35
2017-07-04T05:42:56.149Z,958.34
2017-07-04T05:43:56.145Z,958.36
2017-07-04T05:44:56.143Z,958.34
2017-07-04T05:45:56.135Z,958.33
2017-07-04T05:46:56.134Z,958.32
2017-07-04T05:47:56.130Z,958.34
2017-07-04T05:48:56.125Z,958.34
2017-07-04T05:49:56.122Z,958.37
2017-07-04T05:50:56.119Z,958.36
2017-07-04T05:51:56.116Z,958.41
2017-07-04T05:52:56.112Z,958.39
2017-07-04T05:53:56.120Z,958.37
2017-07-04T05:54:56.105Z,958.32
2017-07-04T05:55:56.100Z,958.35
2017-07-04T05:56:56.096Z,958.34
2017-07-04T05:57:56.093Z,958.36
2017-07-04T05:58:56.108Z,958.36
2017-07-04T05:59:56.093Z,958.36
2017-07-04T06:00:56.080Z,958.33
2017-07-04T06:01:56.077Z,958.35
2017-07-04T06:02:56.074Z,958.36
2017-07-04T06:03:56.071Z,958.41
2017-07-04T06:04:56.065Z,958.37
2017-07-04T06:05:56.063Z,958.39
2017-07-04T06:06:56.060Z,958.46
2017-07-04T06:07:56.055Z,958.41
2017-07-04T06:08:56.051Z,958.39
2017-07-04T06:09:56.047Z,958.4
2017-07-04T06:10:56.043Z,958.43
2017-07-04T06:11:56.041Z,958.44
2017-07-04T06:12:56.037Z,958.46
2017-07-04T06:13:56.033Z,958.47
2017-07-04T06:14:56.031Z,958.45
2017-07-04T06:15:56.026Z,958.46
2017-07-04T06:16:56.024Z,958.46
2017-07-04T06:17:56.023Z,958.5
2017-07-04T06:18:56.014Z,958.48
2017-07-04T06:19:56.013Z,958.49
2017-07-04T06:20:56.009Z,958.5
2017-07-04T06:21:56.009Z,958.48
2017-07-04T06:22:56.002Z,958.49
2017-07-04T06:23:55.999Z,958.48
2017-07-04T06:24:55.997Z,958.49
2017-07-04T06:25:55.995Z,958.5
2017-07-04T06:26:55.990Z,958.51
2017-07-04T06:27:55.987Z,958.49
2017-07-04T06:28:55.984Z,958.49
2017-07-04T06:29:55.980Z,958.49
2017-07-04T06:30:55.976Z,958.51
2017-07-04T06:31:55.975Z,958.5
2017-07-04T06:32:55.973Z,958.5
2017-07-04T06:33:55.969Z,958.5
2017-07-04T06:34:55.967Z,958.49
2017-07-04T06:35:55.962Z,958.5
2017-07-04T06:36:55.959Z,958.56
2017-07-04T06:37:55.957Z,958.52
2017-07-04T06:38:55.953Z,958.54
2017-07-04T06:39:55.999Z,958.56
2017-07-04T06:40:55.949Z,958.57
2017-07-04T06:41:55.961Z,958.54
2017-07-04T06:42:55.945Z,958.53
2017-07-04T06:43:55.942Z,958.49
2017-07-04T06:44:55.939Z,958.5
2017-07-04T06:45:55.941Z,958.51
2017-07-04T06:46:55.937Z,958.56
2017-07-04T06:47:55.932Z,958.59
2017-07-04T06:48:55.929Z,958.58
2017-07-04T06:49:55.927Z,958.58
2017-07-04T06:50:55.926Z,958.59
2017-07-04T06:51:55.923Z,958.58
2017-07-04T06:52:55.923Z,958.61
2017-07-04T06:53:55.919Z,958.59
2017-07-04T06:54:55.916Z,958.59
2017-07-04T06:55:55.915Z,958.63
2017-07-04T06:56:55.912Z,958.62
2017-07-04T06:57:55.910Z,958.6
2017-07-04T06:58:55.908Z,958.65
2017-07-04T06:59:55.906Z,958.62
2017-07-04T07:00:55.902Z,958.64
2017-07-04T07:01:55.901Z,958.63
2017-07-04T07:02:55.898Z,958.62
2017-07-04T07:03:55.896Z,958.63
2017-07-04T07:04:55.895Z,958.63
2017-07-04T07:05:55.891Z,958.64
2017-07-04T07:06:55.892Z,958.61
2017-07-04T07:07:55.888Z,958.62
2017-07-04T07:08:55.887Z,958.66
2017-07-04T07:09:55.885Z,958.6
2017-07-04T07:10:55.883Z,958.6
2017-07-04T07:11:55.888Z,958.63
2017-07-04T07:12:55.880Z,958.59
2017-07-04T07:13:55.879Z,958.62
2017-07-04T07:14:55.877Z,958.58
2017-07-04T07:15:55.876Z,958.62
2017-07-04T07:16:55.875Z,958.61
2017-07-04T07:17:55.873Z,958.67
2017-07-04T07:18:55.873Z,958.67
2017-07-04T07:19:55.883Z,958.71
2017-07-04T07:20:55.870Z,958.7
2017-07-04T07:21:55.893Z,958.7
2017-07-04T07:22:55.868Z,958.71
2017-07-04T07:23:55.866Z,958.77
2017-07-04T07:24:55.870Z,958.77
2017-07-04T07:25:55.866Z,958.77
2017-07-04T07:26:55.882Z,958.78
2017-07-04T07:27:55.863Z,958.77
2017-07-04T07:28:55.864Z,958.78
2017-07-04T07:29:55.864Z,958.76
2017-07-04T07:30:55.864Z,958.78
2017-07-04T07:31:55.862Z,958.79
2017-07-04T07:32:55.861Z,958.81
2017-07-04T07:33:55.861Z,958.8
2017-07-04T07:34:55.872Z,958.76
2017-07-04T07:35:55.862Z,958.77
2017-07-04T07:36:55.861Z,958.77
2017-07-04T07:37:55.861Z,958.75
2017-07-04T07:38:55.859Z,958.75
2017-07-04T07:39:55.859Z,958.77
2017-07-04T07:40:55.860Z,958.74
2017-07-04T07:41:55.868Z,958.72
2017-07-04T07:42:55.861Z,958.73
2017-07-04T07:43:55.860Z,958.79
2017-07-04T07:44:55.860Z,958.73
2017-07-04T07:45:55.858Z,958.81
2017-07-04T07:46:55.861Z,958.84
2017-07-04T07:47:55.862Z,958.79
2017-07-04T07:48:55.861Z,958.79
2017-07-04T07:49:55.860Z,958.79
2017-07-04T07:50:55.865Z,958.8
2017-07-04T07:51:55.866Z,958.85
2017-07-04T07:52:55.865Z,958.72
2017-07-04T07:53:55.864Z,958.73
2017-07-04T07:54:55.864Z,958.81
2017-07-04T07:55:55.864Z,958.76
2017-07-04T07:56:55.865Z,958.76
2017-07-04T07:57:55.867Z,958.77
2017-07-04T07:58:55.890Z,958.76
2017-07-04T07:59:55.868Z,958.74
2017-07-04T08:00:55.882Z,958.74
2017-07-04T08:01:55.888Z,958.69
2017-07-04T08:02:55.871Z,958.75
2017-07-04T08:03:55.871Z,958.69
2017-07-04T08:04:55.872Z,958.7
2017-07-04T08:05:55.873Z,958.72
2017-07-04T08:06:55.875Z,958.69
2017-07-04T08:07:55.875Z,958.69
2017-07-04T08:08:55.875Z,958.73
2017-07-04T08:09:55.878Z,958.69
2017-07-04T08:10:55.876Z,958.71
2017-07-04T08:11:55.877Z,958.7
2017-07-04T08:12:55.877Z,958.68
2017-07-04T08:13:55.878Z,958.71
2017-07-04T08:14:55.879Z,958.7
2017-07-04T08:15:55.879Z,958.67
2017-07-04T08:16:55.882Z,958.65
2017-07-04T08:17:55.882Z,958.7
2017-07-04T08:18:55.883Z,958.68
2017-07-04T08:19:55.882Z,958.72
2017-07-04T08:20:55.901Z,958.61
2017-07-04T08:21:55.885Z,958.69
2017-07-04T08:22:55.884Z,958.65
2017-07-04T08:23:55.885Z,958.65
2017-07-04T08:24:55.887Z,958.63
2017-07-04T08:25:55.888Z,958.63
2017-07-04T08:26:55.889Z,958.61
2017-07-04T08:27:55.891Z,958.63
2017-07-04T08:28:55.891Z,958.62
2017-07-04T08:29:55.892Z,958.63
2017-07-04T08:30:55.902Z,958.64
2017-07-04T08:31:55.893Z,958.66
2017-07-04T08:32:55.894Z,958.66
2017-07-04T08:33:55.896Z,958.65
2017-07-04T08:34:55.896Z,958.65
2017-07-04T08:35:55.897Z,958.64
2017-07-04T08:36:55.898Z,958.67
2017-07-04T08:37:55.899Z,958.67
2017-07-04T08:38:55.909Z,958.7
2017-07-04T08:39:55.901Z,958.73
2017-07-04T08:40:55.920Z,958.69
2017-07-04T08:41:55.904Z,958.67
2017-07-04T08:42:55.905Z,958.68
2017-07-04T08:43:55.906Z,958.73
2017-07-04T08:44:55.907Z,958.68
2017-07-04T08:45:55.909Z,958.7
2017-07-04T08:46:55.908Z,958.72
2017-07-04T08:47:55.910Z,958.68
2017-07-04T08:48:55.911Z,958.7
2017-07-04T08:49:55.912Z,958.69
2017-07-04T08:50:55.921Z,958.71
2017-07-04T08:51:55.915Z,958.67
2017-07-04T08:52:55.915Z,958.69
2017-07-04T08:53:55.915Z,958.68
2017-07-04T08:54:55.918Z,958.69
2017-07-04T08:55:55.917Z,958.66
2017-07-04T08:56:55.919Z,958.66
2017-07-04T08:57:55.921Z,958.62
2017-07-04T08:58:55.921Z,958.59
2017-07-04T08:59:55.923Z,958.6
2017-07-04T09:00:55.925Z,958.59
2017-07-04T09:01:55.925Z,958.63
2017-07-04T09:02:55.925Z,958.64
2017-07-04T09:03:55.927Z,958.59
2017-07-04T09:04:55.930Z,958.57
2017-07-04T09:05:55.931Z,958.56
2017-07-04T09:06:55.931Z,958.59
2017-07-04T09:07:55.933Z,958.58
2017-07-04T09:08:55.935Z,958.59
2017-07-04T09:09:55.936Z,958.6
2017-07-04T09:10:55.937Z,958.59
2017-07-04T09:11:55.937Z,958.6
2017-07-04T09:12:55.940Z,958.57
2017-07-04T09:13:55.940Z,958.63
2017-07-04T09:14:55.943Z,958.62
2017-07-04T09:15:55.942Z,958.59
2017-07-04T09:16:55.946Z,958.57
2017-07-04T09:17:55.945Z,958.61
2017-07-04T09:18:55.947Z,958.6
2017-07-04T09:19:55.950Z,958.56
2017-07-04T09:20:55.956Z,958.66
2017-07-04T09:21:55.951Z,958.65
2017-07-04T09:22:55.951Z,958.7
2017-07-04T09:23:55.974Z,958.67
2017-07-04T09:24:55.953Z,958.65
2017-07-04T09:25:55.956Z,958.65
2017-07-04T09:26:55.958Z,958.63
2017-07-04T09:27:55.959Z,958.65
2017-07-04T09:28:55.961Z,958.62
2017-07-04T09:29:55.962Z,958.63
2017-07-04T09:30:55.963Z,958.61
2017-07-04T09:31:55.965Z,958.59
2017-07-04T09:32:55.967Z,958.64
2017-07-04T09:33:55.977Z,958.66
2017-07-04T09:34:55.970Z,958.65
2017-07-04T09:35:55.970Z,958.62
2017-07-04T09:36:55.973Z,958.59
2017-07-04T09:37:55.975Z,958.63
2017-07-04T09:38:55.980Z,958.6
2017-07-04T09:39:55.977Z,958.59
2017-07-04T09:40:55.985Z,958.57
2017-07-04T09:41:55.979Z,958.57
2017-07-04T09:42:55.981Z,958.59
2017-07-04T09:43:55.983Z,958.55
2017-07-04T09:44:55.985Z,958.54
2017-07-04T09:45:56.006Z,958.56
2017-07-04T09:46:55.988Z,958.56
2017-07-04T09:47:55.987Z,958.63
2017-07-04T09:48:55.990Z,958.59
2017-07-04T09:49:55.992Z,958.57
2017-07-04T09:50:55.996Z,958.56
2017-07-04T09:51:55.994Z,958.55
2017-07-04T09:52:56.015Z,958.57
2017-07-04T09:53:55.996Z,958.53
2017-07-04T09:54:55.999Z,958.53
2017-07-04T09:55:56.000Z,958.55
2017-07-04T09:56:56.001Z,958.57
2017-07-04T09:57:56.002Z,958.53
2017-07-04T09:58:56.003Z,958.56
2017-07-04T09:59:56.006Z,958.59
2017-07-04T10:00:56.009Z,958.57
2017-07-04T10:01:56.013Z,958.55
2017-07-04T10:02:56.009Z,958.55
2017-07-04T10:03:56.021Z,958.58
2017-07-04T10:04:56.011Z,958.52
2017-07-04T10:05:56.013Z,958.5
2017-07-04T10:06:56.013Z,958.48
2017-07-04T10:07:56.015Z,958.45
2017-07-04T10:08:56.015Z,958.41
2017-07-04T10:09:56.018Z,958.43
2017-07-04T10:10:56.018Z,958.38
2017-07-04T10:11:56.020Z,958.39
2017-07-04T10:12:56.021Z,958.39
2017-07-04T10:13:56.023Z,958.35
2017-07-04T10:14:56.024Z,958.39
2017-07-04T10:15:56.024Z,958.29
2017-07-04T10:16:56.027Z,958.29
2017-07-04T10:17:56.029Z,958.3
2017-07-04T10:18:56.031Z,958.31
2017-07-04T10:19:56.032Z,958.31
2017-07-04T10:20:56.032Z,958.34
2017-07-04T10:21:56.035Z,958.33
2017-07-04T10:22:56.036Z,958.32
2017-07-04T10:23:56.037Z,958.38
2017-07-04T10:24:56.040Z,958.4
2017-07-04T10:25:56.041Z,958.44
2017-07-04T10:26:56.042Z,958.45
2017-07-04T10:27:56.043Z,958.46
2017-07-04T10:28:56.043Z,958.44
2017-07-04T10:29:56.047Z,958.44
2017-07-04T10:30:56.046Z,958.43
2017-07-04T10:31:56.047Z,958.45
2017-07-04T10:32:56.048Z,958.48
2017-07-04T10:33:56.047Z,958.48
2017-07-04T10:34:56.049Z,958.49
2017-07-04T10:35:56.050Z,958.47
2017-07-04T10:36:56.051Z,958.52
2017-07-04T10:37:56.052Z,958.46
2017-07-04T10:38:56.052Z,958.49
2017-07-04T10:39:56.054Z,958.42
2017-07-04T10:40:56.099Z,958.41
2017-07-04T10:41:56.054Z,958.42
2017-07-04T10:42:56.077Z,958.37
2017-07-04T10:43:56.056Z,958.37
2017-07-04T10:44:56.063Z,958.39
2017-07-04T10:45:56.057Z,958.37
2017-07-04T10:46:56.057Z,958.37
2017-07-04T10:47:56.058Z,958.33
2017-07-04T10:48:56.061Z,958.28
2017-07-04T10:49:56.060Z,958.23
2017-07-04T10:50:56.062Z,958.27
2017-07-04T10:51:56.062Z,958.26
2017-07-04T10:52:56.061Z,958.24
2017-07-04T10:53:56.065Z,958.37
2017-07-04T10:54:56.067Z,958.33
2017-07-04T10:55:56.066Z,958.34
2017-07-04T10:56:56.106Z,958.23
2017-07-04T10:57:56.069Z,958.23
2017-07-04T10:58:56.070Z,958.22
2017-07-04T10:59:56.071Z,958.21
2017-07-04T11:00:56.073Z,958.24
2017-07-04T11:01:56.074Z,958.21
2017-07-04T11:02:56.079Z,958.13
2017-07-04T11:03:56.079Z,958.16
2017-07-04T11:04:56.078Z,958.14
2017-07-04T11:05:56.079Z,958.1
2017-07-04T11:06:56.081Z,958.11
2017-07-04T11:07:56.082Z,958.08
2017-07-04T11:08:56.103Z,958.09
2017-07-04T11:09:56.084Z,958.15
2017-07-04T11:10:56.087Z,958.09
2017-07-04T11:11:56.088Z,958.14
2017-07-04T11:12:56.089Z,958.1
2017-07-04T11:13:56.090Z,958.11
2017-07-04T11:14:56.091Z,958.09
2017-07-04T11:15:56.093Z,958.15
2017-07-04T11:16:56.094Z,958.11
2017-07-04T11:17:56.094Z,958.06
2017-07-04T11:18:56.096Z,958.06
2017-07-04T11:19:56.097Z,958.1
2017-07-04T11:20:56.098Z,958.07
2017-07-04T11:21:56.101Z,958.08
2017-07-04T11:22:56.100Z,958.04
2017-07-04T11:23:56.102Z,958.05
2017-07-04T11:24:56.104Z,958.05
2017-07-04T11:25:56.103Z,958.05
2017-07-04T11:26:56.105Z,958.12
2017-07-04T11:27:56.113Z,958.22
2017-07-04T11:28:56.118Z,958.21
2017-07-04T11:29:56.109Z,958.23
2017-07-04T11:30:56.109Z,958.25
2017-07-04T11:31:56.110Z,958.26
2017-07-04T11:32:56.111Z,958.24
2017-07-04T11:33:56.110Z,958.27
2017-07-04T11:34:56.112Z,958.27
2017-07-04T11:35:56.114Z,958.31
2017-07-04T11:36:56.120Z,958.26
2017-07-04T11:37:56.114Z,958.29
2017-07-04T11:38:56.117Z,958.28
2017-07-04T11:39:56.120Z,958.31
2017-07-04T11:40:56.115Z,958.29
2017-07-04T11:41:56.140Z,958.31
2017-07-04T11:42:56.116Z,958.31
2017-07-04T11:43:56.116Z,958.26
2017-07-04T11:44:56.117Z,958.19
2017-07-04T11:45:56.118Z,958.18
2017-07-04T11:46:56.116Z,958.18
2017-07-04T11:47:56.120Z,958.2
2017-07-04T11:48:56.118Z,958.17
2017-07-04T11:49:56.119Z,958.15
2017-07-04T11:50:56.119Z,958.14
2017-07-04T11:51:56.121Z,958.16
2017-07-04T11:52:56.122Z,958.15
2017-07-04T11:53:56.121Z,958.12
2017-07-04T11:54:56.126Z,958.14
2017-07-04T11:55:56.128Z,958.16
2017-07-04T11:56:56.130Z,958.13
2017-07-04T11:57:56.124Z,958.22
2017-07-04T11:58:56.125Z,958.28
2017-07-04T11:59:56.127Z,958.26
2017-07-04T12:00:56.136Z,958.25
2017-07-04T12:01:56.129Z,958.26
2017-07-04T12:02:56.131Z,958.28
2017-07-04T12:03:56.129Z,958.27
2017-07-04T12:04:56.133Z,958.25
2017-07-04T12:05:56.140Z,958.25
2017-07-04T12:06:56.154Z,958.29
2017-07-04T12:07:56.152Z,958.3
2017-07-04T12:08:56.135Z,958.31
2017-07-04T12:09:56.135Z,958.27
2017-07-04T12:10:56.137Z,958.26
2017-07-04T12:11:56.137Z,958.3
2017-07-04T12:12:56.137Z,958.31
2017-07-04T12:13:56.139Z,958.28
2017-07-04T12:14:56.140Z,958.27
2017-07-04T12:15:56.141Z,958.26
2017-07-04T12:16:56.143Z,958.28
2017-07-04T12:17:56.144Z,958.24
2017-07-04T12:18:56.160Z,958.26
2017-07-04T12:19:56.147Z,958.33
2017-07-04T12:20:56.149Z,958.3
2017-07-04T12:21:56.150Z,958.33
2017-07-04T12:22:56.152Z,958.29
2017-07-04T12:23:56.152Z,958.27
2017-07-04T12:24:56.155Z,958.26
2017-07-04T12:25:56.158Z,958.23
2017-07-04T12:26:56.158Z,958.24
2017-07-04T12:27:56.160Z,958.25
2017-07-04T12:28:56.162Z,958.24
2017-07-04T12:29:56.165Z,958.24
2017-07-04T12:30:56.167Z,958.19